createdAt,value
2018-11-12T00:04:49.374Z,94607.88
2018-11-12T00:19:53.194Z,94614.08
2018-11-12T00:34:57.001Z,94617.80
2018-11-12T00:50:00.829Z,94616.59
2018-11-12T01:05:05.065Z,94606.14
2018-11-12T01:20:10.273Z,94599.30
2018-11-12T01:35:15.087Z,94522.93
2018-11-12T01:50:19.593Z,94614.38
2018-11-12T02:05:23.448Z,94591.46
2018-11-12T02:20:27.268Z,94582.25
2018-11-12T02:35:31.082Z,94613.85
2018-11-12T02:50:34.888Z,94646.67
2018-11-12T03:05:38.700Z,94655.12
2018-11-12T03:20:42.598Z,94672.64
2018-11-12T03:35:46.349Z,94658.00
2018-11-12T03:50:50.138Z,94675.95
2018-11-12T04:05:53.919Z,94702.20
2018-11-12T04:20:57.704Z,94702.86
2018-11-12T04:36:01.492Z,94683.44
2018-11-12T04:51:05.478Z,94716.77
2018-11-12T05:06:09.330Z,94724.39
2018-11-12T05:21:13.155Z,94728.84
2018-11-12T05:36:16.981Z,94762.00
2018-11-12T05:51:20.876Z,94752.23
2018-11-12T06:06:24.739Z,94770.08
2018-11-12T06:21:28.549Z,94786.67
2018-11-12T06:36:32.442Z,94795.05
2018-11-12T06:51:36.252Z,94789.83
2018-11-12T07:06:40.086Z,94802.41
2018-11-12T07:21:43.943Z,94801.41
2018-11-12T07:36:47.767Z,94804.95
2018-11-12T07:51:51.579Z,94794.08
2018-11-12T08:06:55.367Z,94817.81
2018-11-12T08:21:59.197Z,94797.82
2018-11-12T08:37:03.321Z,94796.77
2018-11-12T08:52:07.456Z,94792.95
2018-11-12T09:07:11.393Z,94788.01
2018-11-12T09:22:15.160Z,94786.27
2018-11-12T09:37:19.041Z,94779.55
2018-11-12T09:52:22.789Z,94769.07
2018-11-12T10:07:28.268Z,94758.05
2018-11-12T10:22:32.208Z,94730.96
2018-11-12T10:37:36.003Z,94730.09
2018-11-12T10:52:39.880Z,94711.31
2018-11-12T11:07:43.691Z,94722.23
2018-11-12T11:22:47.602Z,94702.86
2018-11-12T11:37:51.489Z,94694.08
2018-11-12T11:52:55.822Z,94704.55
2018-11-12T12:07:59.905Z,94685.78
2018-11-12T12:23:03.761Z,94658.97
2018-11-12T12:38:07.610Z,94648.80
2018-11-12T12:53:11.417Z,94636.40
2018-11-12T13:08:15.208Z,94644.77
2018-11-12T13:23:19.014Z,94658.44
2018-11-12T13:38:22.823Z,94648.25
2018-11-12T13:53:26.707Z,94660.56
2018-11-12T14:08:30.527Z,94663.07
2018-11-12T14:23:34.345Z,94658.80
2018-11-12T14:38:38.170Z,94660.13
2018-11-12T14:53:42.052Z,94664.57
2018-11-12T15:08:46.076Z,94668.27
2018-11-12T15:23:49.952Z,94670.05
2018-11-12T15:38:53.771Z,94688.95
2018-11-12T15:53:57.609Z,94698.34
2018-11-12T16:09:01.546Z,94716.05
2018-11-12T16:24:05.783Z,94724.84
2018-11-12T16:39:10.951Z,94736.99
2018-11-12T16:54:14.907Z,94752.34
2018-11-12T17:09:18.794Z,94756.35
2018-11-12T17:24:22.676Z,94762.94
2018-11-12T17:39:26.592Z,94777.03
2018-11-12T17:54:30.750Z,94797.14
2018-11-12T18:09:34.641Z,94804.36
2018-11-12T18:24:39.930Z,94807.53
2018-11-12T18:39:43.852Z,94829.17
2018-11-12T18:54:47.717Z,94847.61
2018-11-12T19:09:51.715Z,94852.29
2018-11-12T19:24:55.655Z,94852.27
2018-11-12T19:39:59.514Z,94851.05
2018-11-12T19:55:03.488Z,94871.41
2018-11-12T20:10:09.672Z,94868.91
2018-11-12T20:25:14.721Z,94862.66
2018-11-12T20:40:18.537Z,94881.70
2018-11-12T20:55:22.511Z,94885.05
2018-11-12T21:10:26.446Z,94897.05
2018-11-12T21:25:30.357Z,94881.58
2018-11-12T21:40:34.221Z,94884.44
2018-11-12T21:55:38.142Z,94884.37
2018-11-12T22:10:41.981Z,94889.23
2018-11-12T22:25:45.819Z,94883.17
2018-11-12T22:40:49.635Z,94868.11
2018-11-12T22:55:53.468Z,94856.39
2018-11-12T23:10:57.297Z,94863.70
2018-11-12T23:26:01.129Z,94864.32
2018-11-12T23:41:04.939Z,94879.08
2018-11-12T23:56:08.731Z,94879.73
